Time;durP1;ratioP1;P1;durP2;ratioP2;P2;SDS_P1;SDS_P2;PMS_P1;PMS_P2;Temp;Humidity;BMP_temperature;BMP_pressure;BME280_temperature;BME280_humidity;BME280_pressure;Samples;Min_cycle;Max_cycle;Signal;HPM_P1;HPM_P2
2022/12/09 00:02:52;;;;;;;22.67;15.47;;;;;;;2.11;98.66;96901.91;6268331;28;20235;-66
2022/12/09 00:05:54;;;;;;;29.60;17.07;;;;;;;2.09;98.78;96908.97;6247812;28;20252;-67
2022/12/09 00:08:57;;;;;;;22.70;15.30;;;;;;;2.06;98.92;96902.19;6265784;28;20720;-66
2022/12/09 00:11:59;;;;;;;24.97;16.27;;;;;;;2.07;98.52;96896.06;6265700;28;20288;-66
2022/12/09 00:15:02;;;;;;;27.13;17.40;;;;;;;2.07;99.16;96900.41;6247324;28;20596;-66
2022/12/09 00:18:05;;;;;;;21.73;14.30;;;;;;;2.07;98.70;96888.25;6263959;28;20226;-66
2022/12/09 00:21:24;;;;;;;22.87;15.80;;;;;;;2.09;98.80;96893.38;6265692;28;20269;-66
2022/12/09 00:24:27;;;;;;;24.17;15.77;;;;;;;2.09;98.86;96886.41;6264123;28;20775;-66
2022/12/09 00:27:29;;;;;;;24.30;14.63;;;;;;;2.10;98.99;96876.78;6266462;28;20226;-66
2022/12/09 00:30:32;;;;;;;23.97;16.17;;;;;;;2.10;98.97;96877.63;6264518;28;20228;-66
2022/12/09 00:33:34;;;;;;;22.03;15.07;;;;;;;2.07;98.70;96866.59;6262251;28;20302;-66
2022/12/09 00:36:36;;;;;;;21.80;15.40;;;;;;;2.07;98.68;96867.44;6248179;28;20798;-66
2022/12/09 00:39:39;;;;;;;22.57;15.07;;;;;;;2.07;98.51;96866.59;6264784;28;20257;-66
2022/12/09 00:42:41;;;;;;;21.30;14.30;;;;;;;2.03;98.41;96873.72;6249000;28;20248;-66
2022/12/09 00:45:44;;;;;;;18.00;12.77;;;;;;;2.03;98.27;96878.09;6266790;28;20438;-66
2022/12/09 00:48:46;;;;;;;23.10;15.03;;;;;;;2.04;98.10;96874.56;6260141;28;20328;-66
2022/12/09 00:51:48;;;;;;;18.37;12.50;;;;;;;2.06;98.24;96877.94;6265131;28;20236;-66
2022/12/09 00:54:50;;;;;;;20.47;14.60;;;;;;;2.08;98.08;96878.69;6263824;28;20270;-66
2022/12/09 00:57:52;;;;;;;20.23;13.40;;;;;;;2.06;97.72;96878.75;6263622;28;20241;-66
2022/12/09 01:00:55;;;;;;;17.43;13.60;;;;;;;2.06;97.99;96883.13;6248036;28;20314;-66
2022/12/09 01:03:57;;;;;;;19.90;13.60;;;;;;;2.04;97.99;96890.19;6264835;28;20647;-66
2022/12/09 01:07:00;;;;;;;20.20;13.93;;;;;;;1.99;97.44;96885.28;6245659;28;20755;-66
2022/12/09 01:10:04;;;;;;;21.53;14.77;;;;;;;1.98;97.63;96881.00;6248809;28;20231;-66
2022/12/09 01:13:09;;;;;;;17.40;12.43;;;;;;;2.00;97.60;96891.28;6187118;28;1224647;-66
2022/12/09 01:16:18;;;;;;;19.03;13.57;;;;;;;2.00;97.57;96888.69;6240658;28;20242;-66
2022/12/09 01:19:21;;;;;;;20.33;12.97;;;;;;;2.01;97.49;96891.19;6264960;28;20252;-66
2022/12/09 01:22:24;;;;;;;22.33;13.40;;;;;;;2.02;97.76;96889.44;6264011;28;20755;-66
2022/12/09 01:25:27;;;;;;;16.97;11.97;;;;;;;2.03;97.63;96881.53;6239839;28;20768;-66
2022/12/09 01:28:29;;;;;;;15.90;11.60;;;;;;;2.02;97.73;96869.44;6246053;28;20730;-66
2022/12/09 01:31:31;;;;;;;17.33;13.00;;;;;;;2.02;97.73;96869.44;6247161;28;20729;-66
2022/12/09 01:34:36;;;;;;;17.97;11.77;;;;;;;2.00;97.68;96873.06;6247057;28;20232;-66
2022/12/09 01:37:38;;;;;;;18.53;12.70;;;;;;;1.97;97.62;96874.09;6265182;28;20729;-66
2022/12/09 01:40:45;;;;;;;16.33;11.30;;;;;;;1.96;97.08;96872.44;6265725;28;20246;-66
2022/12/09 01:44:06;;;;;;;18.30;11.73;;;;;;;1.94;97.49;96876.03;6265312;28;20228;-66
2022/12/09 01:47:21;;;;;;;16.50;12.30;;;;;;;1.92;97.46;96870.91;6267053;28;20225;-66
2022/12/09 01:50:25;;;;;;;14.00;11.23;;;;;;;1.92;97.48;96865.72;6260583;28;20824;-66
2022/12/09 01:53:39;;;;;;;16.07;10.20;;;;;;;1.93;97.20;96859.59;6264694;28;20231;-67
2022/12/09 01:56:41;;;;;;;15.77;11.53;;;;;;;1.94;97.08;96863.03;6261314;28;20708;-66
2022/12/09 01:59:44;;;;;;;15.30;11.70;;;;;;;1.93;97.00;96857.00;6246882;28;20237;-66
2022/12/09 02:02:48;;;;;;;16.23;11.67;;;;;;;1.92;97.00;96857.06;6250841;28;20750;-66
2022/12/09 02:05:53;;;;;;;18.17;12.60;;;;;;;1.89;96.76;96862.47;6262690;28;20234;-66
2022/12/09 02:08:56;;;;;;;16.43;10.40;;;;;;;1.84;96.81;96852.34;6245927;28;20234;-66
2022/12/09 02:12:07;;;;;;;14.47;11.03;;;;;;;1.83;96.31;96843.69;6265252;28;20253;-66
2022/12/09 02:15:15;;;;;;;12.43;9.97;;;;;;;1.82;96.58;96857.63;6246479;28;20301;-66
2022/12/09 02:18:37;;;;;;;16.47;11.13;;;;;;;1.81;96.61;96858.53;6247555;28;20219;-66
2022/12/09 02:21:56;;;;;;;14.10;10.63;;;;;;;1.79;96.67;96863.03;6239708;28;20588;-66
2022/12/09 02:25:11;;;;;;;12.40;9.17;;;;;;;1.80;96.60;96862.06;6260508;28;20228;-66
2022/12/09 02:28:34;;;;;;;14.13;9.83;;;;;;;1.81;96.55;96866.34;6263053;28;20318;-66
2022/12/09 02:31:58;;;;;;;11.83;9.20;;;;;;;1.83;96.55;96866.25;6231402;28;20241;-66
2022/12/09 02:35:09;;;;;;;13.70;9.63;;;;;;;1.81;96.46;96865.50;6266754;28;20313;-66
2022/12/09 02:38:18;;;;;;;13.13;9.67;;;;;;;1.83;96.48;96866.25;6268950;28;20303;-66
2022/12/09 02:41:26;;;;;;;12.97;9.40;;;;;;;1.85;96.51;96862.66;6249315;28;20233;-66
2022/12/09 02:44:30;;;;;;;10.43;8.80;;;;;;;1.85;96.53;96860.06;6248830;28;20243;-66
2022/12/09 02:47:38;;;;;;;10.97;8.33;;;;;;;1.85;96.40;96865.25;6250550;28;20233;-66
2022/12/09 02:50:45;;;;;;;13.10;9.47;;;;;;;1.84;96.42;96858.38;6248638;28;20321;-66
2022/12/09 02:53:52;;;;;;;14.30;10.27;;;;;;;1.84;96.36;96860.13;6250778;28;20265;-66
2022/12/09 02:57:00;;;;;;;12.67;9.63;;;;;;;1.80;96.25;96858.63;6250758;28;20732;-66
2022/12/09 03:00:05;;;;;;;12.83;8.87;;;;;;;1.77;96.40;96851.03;6266937;28;20748;-66
2022/12/09 03:03:15;;;;;;;12.70;9.40;;;;;;;1.78;96.34;96839.69;6251729;28;20235;-67
2022/12/09 03:06:20;;;;;;;11.03;8.47;;;;;;;1.78;96.36;96855.31;6263771;28;20221;-66
2022/12/09 03:09:33;;;;;;;14.73;9.80;;;;;;;1.76;96.19;96855.38;6267467;28;20228;-66
2022/12/09 03:12:39;;;;;;;10.90;8.53;;;;;;;1.74;95.88;96848.59;6250111;28;20224;-66
2022/12/09 03:15:49;;;;;;;11.70;9.37;;;;;;;1.73;96.04;96845.16;6268054;28;20308;-66
2022/12/09 03:19:18;;;;;;;12.27;9.20;;;;;;;1.73;96.21;96846.91;6267771;28;20325;-66
2022/12/09 03:22:25;;;;;;;13.43;9.63;;;;;;;1.71;96.24;96841.81;6267248;28;20764;-66
2022/12/09 03:25:37;;;;;;;13.60;10.30;;;;;;;1.70;96.27;96832.31;6250690;28;20594;-66
2022/12/09 03:28:43;;;;;;;13.10;10.40;;;;;;;1.69;96.10;96835.88;6267044;28;20237;-66
2022/12/09 03:31:47;;;;;;;11.10;8.30;;;;;;;1.70;96.00;96836.69;6262917;28;20736;-66
2022/12/09 03:34:53;;;;;;;13.10;9.00;;;;;;;1.72;95.83;96840.88;6255954;28;20745;-66
2022/12/09 03:37:57;;;;;;;12.07;9.27;;;;;;;1.73;96.46;96828.72;6268428;28;20235;-66
2022/12/09 03:41:07;;;;;;;9.93;8.00;;;;;;;1.72;96.33;96817.47;6265851;28;20242;-66
2022/12/09 03:44:20;;;;;;;12.00;8.73;;;;;;;1.70;96.32;96803.72;6251857;28;20465;-66
2022/12/09 03:47:22;;;;;;;10.43;7.80;;;;;;;1.69;96.09;96801.22;6266314;28;20253;-66
2022/12/09 03:50:30;;;;;;;11.67;8.43;;;;;;;1.70;96.17;96795.91;6265658;28;20224;-66
2022/12/09 03:53:40;;;;;;;12.67;8.87;;;;;;;1.69;95.77;96809.88;6267189;28;20229;-66
2022/12/09 03:56:48;;;;;;;12.03;9.33;;;;;;;1.67;96.02;96813.47;6267798;28;20737;-66
2022/12/09 03:59:58;;;;;;;10.37;8.27;;;;;;;1.68;95.64;96818.59;6268428;28;20223;-66
2022/12/09 04:03:00;;;;;;;13.00;9.17;;;;;;;1.69;96.06;96814.22;6264985;28;20988;-66
2022/12/09 04:06:03;;;;;;;12.50;9.77;;;;;;;1.66;95.63;96810.03;6266019;28;20688;-66
2022/12/09 04:09:05;;;;;;;12.70;8.37;;;;;;;1.66;95.48;96810.03;6271315;28;20210;-66
2022/12/09 04:12:07;;;;;;;13.37;10.40;;;;;;;1.65;95.80;96802.31;6270374;28;20244;-66
2022/12/09 04:15:10;;;;;;;13.90;9.80;;;;;;;1.64;95.63;96798.06;6269969;28;20262;-66
2022/12/09 04:18:12;;;;;;;13.47;10.00;;;;;;;1.62;95.51;96803.34;6262213;28;20309;-66
2022/12/09 04:21:15;;;;;;;11.90;9.43;;;;;;;1.61;96.02;96798.22;6266899;28;20219;-66
2022/12/09 04:24:17;;;;;;;12.73;8.83;;;;;;;1.62;95.86;96792.09;6262066;28;20730;-66
2022/12/09 04:27:19;;;;;;;11.57;9.40;;;;;;;1.63;95.81;96792.00;6267342;28;20218;-66
2022/12/09 04:30:21;;;;;;;12.80;9.43;;;;;;;1.65;96.21;96789.31;6268067;28;20232;-66
2022/12/09 04:33:25;;;;;;;12.63;9.23;;;;;;;1.68;96.08;96791.75;6265576;28;20697;-66
2022/12/09 04:36:27;;;;;;;13.50;9.20;;;;;;;1.69;96.05;96789.06;6267050;28;20236;-66
2022/12/09 04:39:30;;;;;;;13.70;10.57;;;;;;;1.69;96.24;96793.44;6265837;28;20245;-66
2022/12/09 04:42:32;;;;;;;18.40;11.70;;;;;;;1.64;96.02;96780.69;6266262;28;20226;-66
2022/12/09 04:45:35;;;;;;;17.67;12.23;;;;;;;1.63;96.16;96788.56;6263713;28;20221;-66
2022/12/09 04:48:37;;;;;;;17.87;11.60;;;;;;;1.61;96.14;96785.22;6267299;28;20300;-66
2022/12/09 04:51:40;;;;;;;16.40;11.70;;;;;;;1.55;96.14;96786.44;6263250;28;20687;-66
2022/12/09 04:54:42;;;;;;;19.90;12.70;;;;;;;1.54;96.43;96784.75;6265740;28;20232;-66
2022/12/09 04:57:44;;;;;;;15.93;11.43;;;;;;;1.56;96.42;96782.91;6264712;28;20228;-66
2022/12/09 05:00:46;;;;;;;17.30;12.87;;;;;;;1.57;96.46;96781.16;6263614;28;20687;-66
2022/12/09 05:03:51;;;;;;;16.83;11.43;;;;;;;1.53;96.14;96764.88;6268023;28;20228;-66
2022/12/09 05:06:53;;;;;;;16.90;11.63;;;;;;;1.53;96.17;96762.28;6265181;28;20219;-66
2022/12/09 05:09:59;;;;;;;18.70;12.57;;;;;;;1.52;96.37;96752.81;6264899;28;20220;-66
2022/12/09 05:13:02;;;;;;;20.53;12.73;;;;;;;1.48;96.10;96748.72;6243201;28;20284;-66
2022/12/09 05:16:08;;;;;;;22.83;12.53;;;;;;;1.44;96.23;96731.63;6265588;28;20322;-66
2022/12/09 05:19:16;;;;;;;14.27;11.10;;;;;;;1.44;96.14;96718.63;6262041;28;20228;-66
2022/12/09 05:22:19;;;;;;;15.83;11.33;;;;;;;1.44;96.28;96703.88;6244122;28;20579;-66
2022/12/09 05:25:22;;;;;;;16.40;12.07;;;;;;;1.44;96.18;96693.47;6263971;28;20228;-66
2022/12/09 05:28:24;;;;;;;14.87;11.13;;;;;;;1.42;96.52;96684.09;6264840;28;20785;-66
2022/12/09 05:31:27;;;;;;;17.40;11.60;;;;;;;1.36;96.06;96674.91;6264214;28;20312;-66
2022/12/09 05:34:29;;;;;;;18.87;12.37;;;;;;;1.34;95.83;96668.97;6247468;28;20608;-66
2022/12/09 05:37:32;;;;;;;19.47;11.97;;;;;;;1.29;95.68;96691.81;6265062;28;20596;-66
2022/12/09 05:40:35;;;;;;;16.80;12.37;;;;;;;1.29;95.92;96702.19;6264504;28;20235;-66
2022/12/09 05:43:38;;;;;;;16.30;12.37;;;;;;;1.28;95.85;96695.31;6266321;28;20250;-66
2022/12/09 05:46:40;;;;;;;16.30;11.67;;;;;;;1.28;96.08;96687.53;6248278;28;20714;-66
2022/12/09 05:49:42;;;;;;;17.20;12.50;;;;;;;1.25;95.32;96687.69;6258585;28;20234;-66
2022/12/09 05:52:45;;;;;;;15.50;11.20;;;;;;;1.23;95.26;96684.34;6243177;28;20696;-66
2022/12/09 05:55:47;;;;;;;19.57;13.10;;;;;;;1.24;95.61;96690.38;6264606;28;20311;-66
2022/12/09 05:58:50;;;;;;;17.87;12.47;;;;;;;1.22;95.17;96693.06;6245856;28;20314;-66
2022/12/09 06:01:53;;;;;;;17.40;12.23;;;;;;;1.22;95.30;96693.06;6265672;28;20238;-65
2022/12/09 06:04:55;;;;;;;15.33;11.70;;;;;;;1.21;95.17;96694.00;6264892;28;20718;-66
2022/12/09 06:07:58;;;;;;;15.43;11.57;;;;;;;1.18;95.49;96694.19;6271191;28;20229;-66
2022/12/09 06:11:19;;;;;;;18.90;12.47;;;;;;;1.18;95.48;96689.00;6270080;28;20220;-66
2022/12/09 06:14:22;;;;;;;16.43;10.93;;;;;;;1.20;95.17;96684.53;6268484;28;20231;-66
2022/12/09 06:17:24;;;;;;;16.63;11.83;;;;;;;1.21;95.19;96680.16;6264983;28;20232;-66
2022/12/09 06:20:26;;;;;;;19.17;13.03;;;;;;;1.18;95.47;96668.22;6268119;28;20230;-66
2022/12/09 06:23:29;;;;;;;18.77;12.67;;;;;;;1.16;95.54;96674.41;6271109;28;20574;-66
2022/12/09 06:26:31;;;;;;;18.57;13.63;;;;;;;1.15;95.56;96670.16;6268049;28;20225;-66
2022/12/09 06:29:33;;;;;;;18.93;13.20;;;;;;;1.12;95.65;96673.75;6270143;28;20256;-66
2022/12/09 06:32:36;;;;;;;16.70;11.70;;;;;;;1.15;95.51;96672.75;6269907;28;20577;-66
2022/12/09 06:35:38;;;;;;;19.37;12.23;;;;;;;1.17;95.67;96650.94;6268381;28;20318;-66
2022/12/09 06:38:40;;;;;;;20.43;14.53;;;;;;;1.13;95.38;96648.59;6267985;28;20235;-66
2022/12/09 06:41:43;;;;;;;18.87;13.07;;;;;;;1.09;95.95;96642.78;6265389;28;20227;-66
2022/12/09 06:44:45;;;;;;;16.13;11.73;;;;;;;1.10;95.87;96645.25;6268402;28;20235;-66
2022/12/09 06:47:48;;;;;;;17.60;12.10;;;;;;;1.14;95.91;96645.91;6269493;28;20298;-66
2022/12/09 06:50:51;;;;;;;19.30;13.43;;;;;;;1.13;95.75;96643.41;6271010;28;20230;-66
2022/12/09 06:53:53;;;;;;;17.03;12.43;;;;;;;1.13;95.71;96639.06;6249073;28;20696;-66
2022/12/09 06:56:56;;;;;;;19.73;13.57;;;;;;;1.11;95.65;96628.75;6270414;28;20222;-67
2022/12/09 06:59:58;;;;;;;21.83;14.97;;;;;;;1.09;95.73;96625.44;6267207;28;20246;-67
2022/12/09 07:03:00;;;;;;;20.77;13.43;;;;;;;1.08;95.63;96628.09;6252460;28;20280;-66
2022/12/09 07:06:03;;;;;;;20.17;13.73;;;;;;;1.09;95.92;96629.78;6266782;28;20604;-67
2022/12/09 07:09:10;;;;;;;21.40;13.50;;;;;;;1.05;95.83;96620.50;6248729;28;20230;-66
2022/12/09 07:12:13;;;;;;;19.97;14.20;;;;;;;1.05;95.80;96621.31;6267240;28;20250;-66
2022/12/09 07:15:15;;;;;;;24.63;15.47;;;;;;;1.07;95.87;96623.84;6267068;28;20883;-66
2022/12/09 07:18:17;;;;;;;22.47;14.90;;;;;;;1.08;96.01;96630.72;6267145;28;20221;-66
2022/12/09 07:21:21;;;;;;;23.17;15.33;;;;;;;1.11;95.85;96633.09;6268320;28;20231;-66
2022/12/09 07:24:24;;;;;;;22.50;15.33;;;;;;;1.14;96.04;96624.28;6267150;28;20229;-66
2022/12/09 07:27:26;;;;;;;20.33;13.60;;;;;;;1.15;95.80;96624.22;6265760;28;20223;-66
2022/12/09 07:30:28;;;;;;;23.50;14.93;;;;;;;1.19;96.06;96619.69;6234199;28;20281;-66
2022/12/09 07:33:31;;;;;;;22.60;14.43;;;;;;;1.19;95.86;96614.47;6267104;28;20228;-66
2022/12/09 07:36:34;;;;;;;19.63;14.13;;;;;;;1.19;95.83;96607.53;6262198;28;20235;-66
2022/12/09 07:39:36;;;;;;;23.63;15.37;;;;;;;1.20;95.91;96597.97;6266938;28;20262;-66
2022/12/09 07:42:38;;;;;;;21.03;13.70;;;;;;;1.22;95.74;96591.72;6266296;28;20780;-66
2022/12/09 07:45:43;;;;;;;22.50;15.13;;;;;;;1.22;95.77;96583.94;6265163;28;20276;-66
2022/12/09 07:48:46;;;;;;;22.87;14.87;;;;;;;1.25;95.58;96580.31;6268838;28;20236;-66
2022/12/09 07:51:49;;;;;;;20.57;13.87;;;;;;;1.29;95.75;96584.41;6266166;28;20224;-66
2022/12/09 07:54:51;;;;;;;18.80;12.83;;;;;;;1.29;95.20;96581.81;6267706;28;20231;-66
2022/12/09 07:57:53;;;;;;;20.03;13.60;;;;;;;1.33;95.48;96597.09;6265077;28;20246;-66
2022/12/09 08:00:55;;;;;;;22.13;14.10;;;;;;;1.31;95.37;96596.34;6263117;28;20715;-66
2022/12/09 08:03:58;;;;;;;22.80;15.37;;;;;;;1.27;95.11;96588.84;6268234;28;20247;-66
2022/12/09 08:07:00;;;;;;;22.97;15.07;;;;;;;1.17;95.14;96590.34;6266796;28;20240;-68
2022/12/09 08:10:03;;;;;;;24.80;16.03;;;;;;;1.11;95.20;96589.78;6267077;28;20235;-66
2022/12/09 08:13:06;;;;;;;24.43;15.57;;;;;;;1.16;95.56;96592.09;6265696;28;20240;-66
2022/12/09 08:16:11;;;;;;;22.93;15.03;;;;;;;1.19;95.81;96597.13;6265853;28;20226;-66
2022/12/09 08:19:14;;;;;;;22.03;14.93;;;;;;;1.28;95.83;96591.38;6264327;28;20238;-66
2022/12/09 08:22:16;;;;;;;22.77;14.53;;;;;;;1.37;95.12;96593.41;6264740;28;20247;-66
2022/12/09 08:25:19;;;;;;;21.53;14.73;;;;;;;1.39;95.09;96599.34;6261797;28;20230;-66
2022/12/09 08:28:22;;;;;;;23.07;15.53;;;;;;;1.43;95.00;96602.59;6264356;28;20248;-66
2022/12/09 08:31:26;;;;;;;20.93;13.83;;;;;;;1.45;94.62;96601.56;6265660;28;20223;-66
2022/12/09 08:34:29;;;;;;;24.07;15.47;;;;;;;1.45;94.63;96591.16;6249169;28;20236;-66
2022/12/09 08:37:31;;;;;;;23.03;14.77;;;;;;;1.46;94.62;96587.63;6265258;28;20320;-66
2022/12/09 08:40:34;;;;;;;22.47;14.57;;;;;;;1.47;94.50;96591.06;6265667;28;20733;-66
2022/12/09 08:43:37;;;;;;;23.20;14.63;;;;;;;1.46;94.34;96585.03;6264547;28;20233;-66
2022/12/09 08:46:42;;;;;;;24.23;14.97;;;;;;;1.50;94.20;96579.66;6255067;28;20738;-66
2022/12/09 08:49:45;;;;;;;21.13;15.03;;;;;;;1.54;94.15;96581.13;6247656;28;20238;-66
2022/12/09 08:52:47;;;;;;;23.83;15.00;;;;;;;1.58;93.78;96574.81;6266352;28;20238;-66
2022/12/09 08:55:49;;;;;;;24.90;15.80;;;;;;;1.64;93.64;96571.81;6264201;28;20240;-66
2022/12/09 08:58:53;;;;;;;26.47;16.50;;;;;;;1.51;93.41;96565.72;6247929;28;20236;-66
2022/12/09 09:01:56;;;;;;;22.43;15.57;;;;;;;1.51;93.68;96570.91;6267180;28;20224;-66
2022/12/09 09:04:58;;;;;;;29.00;17.43;;;;;;;1.54;94.00;96565.53;6263669;28;20255;-66
2022/12/09 09:08:02;;;;;;;25.33;16.80;;;;;;;1.47;93.75;96563.31;6259753;28;20310;-66
2022/12/09 09:11:10;;;;;;;25.87;16.00;;;;;;;1.45;94.69;96562.56;6266019;28;20710;-66
2022/12/09 09:14:13;;;;;;;27.07;16.33;;;;;;;1.45;94.67;96546.13;6264812;28;20254;-67
2022/12/09 09:17:16;;;;;;;26.40;17.13;;;;;;;1.50;94.68;96543.25;6262883;28;20788;-66
2022/12/09 09:20:19;;;;;;;26.73;16.97;;;;;;;1.55;94.74;96538.59;6259334;28;20235;-66
2022/12/09 09:23:21;;;;;;;28.00;17.80;;;;;;;1.61;94.74;96530.41;6239657;28;20324;-66
2022/12/09 09:26:26;;;;;;;26.47;16.03;;;;;;;1.66;94.71;96520.56;6265048;28;20258;-66
2022/12/09 09:29:29;;;;;;;32.33;18.20;;;;;;;1.65;94.58;96513.69;6263742;28;20226;-67
2022/12/09 09:32:31;;;;;;;27.10;16.50;;;;;;;1.66;94.51;96512.75;6265487;28;20243;-67
2022/12/09 09:35:34;;;;;;;26.47;16.33;;;;;;;1.70;94.52;96498.63;6265761;28;20228;-66
2022/12/09 09:38:37;;;;;;;24.87;16.13;;;;;;;1.72;94.93;96502.78;6263949;28;20237;-66
2022/12/09 09:41:48;;;;;;;28.67;16.83;;;;;;;1.75;94.89;96492.19;6266748;28;20313;-66
2022/12/09 09:44:53;;;;;;;29.97;17.90;;;;;;;1.79;94.83;96493.69;6267750;28;20239;-66
2022/12/09 09:48:01;;;;;;;28.50;17.77;;;;;;;1.80;95.03;96494.50;6267200;28;20231;-66
2022/12/09 09:51:12;;;;;;;27.93;16.13;;;;;;;1.85;94.86;96482.03;6269260;28;20242;-66
2022/12/09 09:54:14;;;;;;;30.03;17.63;;;;;;;1.88;94.88;96470.59;6273098;28;20224;-66
2022/12/09 09:57:23;;;;;;;28.27;17.03;;;;;;;1.85;94.54;96469.03;6264307;28;20249;-66
2022/12/09 10:00:29;;;;;;;26.73;16.80;;;;;;;1.83;94.75;96466.53;6268943;28;20687;-66
2022/12/09 10:03:49;;;;;;;30.97;16.73;;;;;;;1.91;95.17;96465.19;6271030;28;20318;-66
2022/12/09 10:07:24;;;;;;;32.50;17.27;;;;;;;2.00;95.31;96462.81;6268863;28;20306;-66
2022/12/09 10:10:42;;;;;;;26.63;15.97;;;;;;;2.07;95.15;96455.47;6187770;28;20671;-66
2022/12/09 10:13:53;;;;;;;38.30;20.10;;;;;;;2.10;95.10;96443.06;6267729;28;20267;-66
2022/12/09 10:17:01;;;;;;;28.43;16.90;;;;;;;2.11;95.47;96425.69;6267745;28;20731;-66
2022/12/09 10:20:11;;;;;;;31.13;18.60;;;;;;;2.12;95.37;96419.53;6247126;28;20745;-66
2022/12/09 10:23:15;;;;;;;34.50;18.90;;;;;;;2.10;95.64;96419.63;6235508;28;20256;-66
2022/12/09 10:26:29;;;;;;;29.23;17.10;;;;;;;2.12;95.85;96420.38;6268170;28;20262;-66
2022/12/09 10:29:47;;;;;;;30.27;17.40;;;;;;;2.13;96.14;96416.84;6247775;28;20373;-66
2022/12/09 10:32:52;;;;;;;32.83;18.27;;;;;;;2.14;96.12;96417.66;6269130;28;20234;-66
2022/12/09 10:35:55;;;;;;;26.67;16.87;;;;;;;2.14;96.31;96415.91;6252137;28;20249;-66
2022/12/09 10:38:59;;;;;;;32.13;18.53;;;;;;;2.15;96.56;96411.53;6267534;28;20232;-66
2022/12/09 10:45:23;;;;;;;31.07;18.00;;;;;;;2.29;96.99;96393.22;6264460;28;20447;-66
2022/12/09 10:48:41;;;;;;;29.60;16.97;;;;;;;2.37;96.94;96390.94;6251252;28;20619;-66
2022/12/09 10:51:49;;;;;;;30.50;17.17;;;;;;;2.43;96.97;96377.47;6268035;28;20245;-66
2022/12/09 10:54:52;;;;;;;26.17;15.60;;;;;;;2.45;96.50;96366.97;6263099;28;20331;-66
2022/12/09 10:58:25;;;;;;;25.03;15.37;;;;;;;2.44;96.40;96358.31;6268348;28;20228;-66
2022/12/09 11:01:28;;;;;;;23.63;14.37;;;;;;;2.48;96.43;96361.56;6262485;28;20229;-66
2022/12/09 11:04:35;;;;;;;23.47;15.07;;;;;;;2.55;96.53;96362.78;6267348;28;20324;-66
2022/12/09 11:07:38;;;;;;;24.77;14.13;;;;;;;2.59;96.63;96346.03;6266205;28;20241;-66
2022/12/09 11:10:48;;;;;;;25.97;14.47;;;;;;;2.63;95.93;96341.41;6249683;28;20239;-66
2022/12/09 11:13:51;;;;;;;22.30;13.67;;;;;;;2.65;96.49;96347.34;6265187;28;20335;-66
2022/12/09 11:16:57;;;;;;;23.80;13.77;;;;;;;2.67;96.45;96346.31;6248185;28;20489;-66
2022/12/09 11:20:15;;;;;;;22.43;14.57;;;;;;;2.74;95.89;96351.91;6269174;28;20230;-66
2022/12/09 11:23:19;;;;;;;20.97;13.20;;;;;;;2.78;95.89;96358.59;6263473;28;20235;-66
2022/12/09 11:26:25;;;;;;;20.67;12.93;;;;;;;2.92;95.81;96348.84;6268168;28;20376;-66
2022/12/09 11:29:27;;;;;;;19.40;13.30;;;;;;;3.04;95.36;96352.34;6252179;28;20257;-66
2022/12/09 11:32:30;;;;;;;19.20;12.73;;;;;;;3.10;94.75;96345.84;6266077;28;20321;-66
2022/12/09 11:35:42;;;;;;;18.43;12.63;;;;;;;3.18;94.69;96340.94;6266635;28;20234;-66
2022/12/09 11:38:47;;;;;;;18.23;12.10;;;;;;;3.25;94.81;96323.91;6267069;28;20237;-66
2022/12/09 11:42:21;;;;;;;16.63;11.17;;;;;;;3.34;93.72;96325.84;6263213;28;20370;-66
2022/12/09 11:45:34;;;;;;;15.73;10.27;;;;;;;3.41;94.44;96326.22;6264717;28;20353;-66
2022/12/09 11:48:36;;;;;;;16.30;11.50;;;;;;;3.50;93.99;96308.09;6260923;28;20403;-65
2022/12/09 11:52:20;;;;;;;14.83;9.60;;;;;;;3.63;93.09;96315.84;6250376;28;20709;-66
2022/12/09 11:55:23;;;;;;;15.77;10.77;;;;;;;3.65;92.23;96308.75;6246832;28;20792;-66
2022/12/09 11:58:38;;;;;;;14.43;9.63;;;;;;;3.64;92.46;96310.53;6263842;28;20264;-66
2022/12/09 12:01:49;;;;;;;14.33;9.73;;;;;;;3.56;93.11;96312.88;6268707;28;20761;-66
2022/12/09 12:05:01;;;;;;;13.93;9.40;;;;;;;3.48;93.14;96302.19;6267674;28;20223;-67
2022/12/09 12:08:17;;;;;;;13.00;9.40;;;;;;;3.47;93.23;96304.91;6265574;28;20238;-66
2022/12/09 12:11:39;;;;;;;15.03;10.37;;;;;;;3.44;93.89;96295.53;6266288;28;20712;-67
2022/12/09 12:14:42;;;;;;;14.67;9.90;;;;;;;3.37;93.63;96291.72;6265646;28;20690;-66
2022/12/09 12:17:52;;;;;;;13.73;9.03;;;;;;;3.35;94.34;96309.25;6262755;28;20220;-66
2022/12/09 12:20:57;;;;;;;15.00;9.83;;;;;;;3.31;94.55;96305.19;6260536;28;20235;-66
2022/12/09 12:24:19;;;;;;;14.60;9.00;;;;;;;3.27;95.04;96307.22;6264478;28;20261;-66
2022/12/09 12:27:45;;;;;;;12.37;8.40;;;;;;;3.26;95.70;96305.53;6260733;28;20822;-66
2022/12/09 12:31:05;;;;;;;14.47;10.00;;;;;;;3.22;95.90;96298.88;6263270;28;20227;-65
2022/12/09 12:34:30;;;;;;;11.50;8.57;;;;;;;3.16;95.75;96301.94;6264177;28;20254;-66
2022/12/09 12:37:58;;;;;;;12.13;8.63;;;;;;;3.14;96.63;96287.34;6261007;28;20232;-65
2022/12/09 12:41:14;;;;;;;12.83;7.83;;;;;;;3.15;96.64;96291.63;6263034;28;20286;-64
2022/12/09 12:48:23;;;;;;;15.10;9.30;;;;;;;3.09;96.82;96276.44;6259428;28;20805;-66
2022/12/09 12:51:40;;;;;;;15.00;9.60;;;;;;;3.07;97.01;96267.91;6254146;28;20283;-66
2022/12/09 12:55:13;;;;;;;13.53;9.33;;;;;;;3.03;97.35;96259.47;6257098;28;20281;-66
2022/12/09 12:58:33;;;;;;;14.10;10.00;;;;;;;2.97;98.00;96259.94;6265589;28;20575;-66
2022/12/09 13:01:50;;;;;;;14.30;9.97;;;;;;;2.93;98.05;96241.06;6264934;28;20246;-66
2022/12/09 13:04:59;;;;;;;14.97;9.47;;;;;;;2.92;98.54;96236.81;6264268;28;20270;-66
2022/12/09 13:08:16;;;;;;;12.30;9.00;;;;;;;2.92;98.92;96233.34;6270021;28;20324;-66
2022/12/09 13:11:30;;;;;;;15.53;10.20;;;;;;;2.92;99.45;96223.78;6265293;28;20230;-66
2022/12/09 13:14:54;;;;;;;11.40;8.47;;;;;;;2.92;99.34;96218.56;6267702;28;20230;-66
2022/12/09 13:17:58;;;;;;;16.37;10.10;;;;;;;2.94;99.83;96208.88;6260529;28;20238;-66
2022/12/09 13:21:03;;;;;;;15.80;10.73;;;;;;;2.93;99.55;96206.38;6246313;28;20325;-66
2022/12/09 13:24:25;;;;;;;13.53;9.43;;;;;;;2.95;99.46;96207.09;6256356;28;20318;-66
2022/12/09 13:28:07;;;;;;;16.20;9.17;;;;;;;2.97;100.00;96197.41;6239283;28;20820;-66
2022/12/09 13:31:09;;;;;;;14.70;9.70;;;;;;;2.97;99.89;96195.63;6128294;28;20328;-66
2022/12/09 13:34:32;;;;;;;12.83;9.10;;;;;;;2.99;100.00;96195.50;6148581;28;20233;-66
2022/12/09 13:37:43;;;;;;;10.87;8.73;;;;;;;3.00;100.00;96176.28;6150403;28;20694;-67
2022/12/09 13:40:45;;;;;;;13.17;9.40;;;;;;;3.02;100.00;96179.63;6147010;28;20237;-67
2022/12/09 13:43:47;;;;;;;14.47;9.73;;;;;;;2.99;100.00;96172.06;6158898;28;20344;-67
2022/12/09 13:46:49;;;;;;;13.70;9.47;;;;;;;2.95;100.00;96170.59;6163236;28;20290;-66
2022/12/09 13:50:00;;;;;;;14.13;9.80;;;;;;;2.95;100.00;96173.22;6164688;28;20251;-66
2022/12/09 13:53:20;;;;;;;14.20;9.80;;;;;;;2.93;100.00;96165.50;6162181;28;20231;-66
2022/12/09 13:56:26;;;;;;;15.10;10.57;;;;;;;2.94;100.00;96166.34;6158598;28;20745;-66
2022/12/09 13:59:43;;;;;;;12.83;10.13;;;;;;;2.87;100.00;96158.16;6159757;28;20228;-67
2022/12/09 14:03:15;;;;;;;15.17;10.93;;;;;;;2.84;100.00;96160.97;6163171;28;20711;-67
2022/12/09 14:06:32;;;;;;;14.10;9.47;;;;;;;2.82;100.00;96168.06;6193276;28;20242;-66
2022/12/09 14:09:38;;;;;;;12.10;8.67;;;;;;;2.80;100.00;96162.13;6258941;28;20228;-67
2022/12/09 14:13:00;;;;;;;12.80;8.90;;;;;;;2.84;100.00;96158.38;6263556;28;20325;-66
2022/12/09 14:16:26;;;;;;;12.93;9.03;;;;;;;2.87;100.00;96160.75;6250792;28;20234;-67
2022/12/09 14:19:50;;;;;;;11.60;9.50;;;;;;;2.86;100.00;96153.88;6261014;28;20227;-66
2022/12/09 14:23:10;;;;;;;13.30;9.67;;;;;;;2.83;100.00;96148.91;6264179;28;20711;-66
2022/12/09 14:26:42;;;;;;;15.70;10.20;;;;;;;2.81;100.00;96142.13;6242429;28;20230;-66
2022/12/09 14:29:46;;;;;;;13.67;9.80;;;;;;;2.79;100.00;96136.22;6251731;28;20222;-66
2022/12/09 14:32:48;;;;;;;12.03;8.97;;;;;;;2.78;100.00;96148.44;6265078;28;20815;-66
2022/12/09 14:35:55;;;;;;;13.90;9.53;;;;;;;2.81;100.00;96135.16;6262666;28;20277;-66
2022/12/09 14:39:26;;;;;;;12.77;9.30;;;;;;;2.82;100.00;96139.41;6250011;28;20230;-66
2022/12/09 14:42:52;;;;;;;10.90;8.67;;;;;;;2.79;100.00;96137.06;6263779;28;20238;-67